Timeline UpdatesTrip UpdatesNews PostsPvt PostsTravel TipsAdmin PostsConv PostsFollowed PostsChat RequestsBlog PostsPNR Posts

Disclaimer
Search
 
 
Sat Aug 30, 2014 17:43:06 ISTHomeTrainsΣChainsAtlasPNRForumGalleryNewsFAQTripsMembersLoginFeedback
No Recent News for this Train
Other Trains in the News **new
Latest...
Cancelled on 3/8/14
Fri Aug 01, 2014 (08:09PM)
⇐ Return Journey: Train# 58117

58118/Gondia-Jharsuguda Passenger (UnReserved)

Sep 11 2013 (10:54PM)
Change Departure Station:
Change Arrival Station:
Post a Train Travel TipPost a Train Travel Tip **new
Post a Comment/Question/Picture/VideoPost a Comment/Question/Picture/Video
Pantry/Catering
???
RSA - Rake Sharing
Rake/Coach Composition
Loco
BIA WAM-4
News    PNR    Forum    Time-Table    Availability    Fare Chart    Map    Arr/Dep History    Trips    Gallery    ΣChains    X/O    Timeline    
Travel Time: 3h 10m    15 halts    Distance: 135 km    Avg Speed: 42 km/hr
Type: Passenger
Zone: SER/South Eastern
Departs @ 05:00 (Avg 2m late)
Platform# ???
SMTWTFS
Gondia Junction/G 
Arrives @ 08:10 (Avg 7m late)
Platform# ???
SMTWTFS
Durg Junction/DURG 

15 halts. 15 intermediate Stations between Gondia Junction and Durg Junction

Show ALL intermediate Stations  Show Old Time-Table

#CodeStation NameX/OArrivesAvgDepartsAvgHaltPFDay#KmSpeedElevZoneAddress
1Gondia Junction (7)»  -05:00+2--10.071316mSECRGondia 441601, Maharashtra
2GDMGudma (2)  05:10+905:11+111m--111.973323mSECRGondia, Maharashtra
3AGNAmgaon (2)X  05:20+1105:22+112m--122.872317mSECRGondia, Maharashtra
4DNLDhanoli (2)X  05:28-05:29-1m--130.164310mSECRAmgaon, Maharashtra
5SKSSalekasa (2)X  05:36+1205:38+132m--137.553312mSECRRajnandgaon, Chhattisgarh
6DKSDarekasa (2)  05:51+1205:52+151m--149.166381mSECRRajnandgaon, Chhattisgarh
7BTLBortalao (2)  05:59+1606:00+181m--156.844409mSECRRajnandgaon, Chhattisgarh
8PJBPaniajob (2)  06:12+1706:13+191m--165.638398mSECRRajnandgaon, Chhattisgarh
9DGGDongargarh (2)O  06:25+1806:35+1710m--173.365353mSECRDongargarh, Chhattisgarh
10JTRJatkanharO  06:41+1706:42+181m--179.840330mSECRRajnandgaon, Chhattisgarh
11MUAMusraX  06:52+1506:54+142m--186.459325mSECRRajnandgaon, Chhattisgarh
12BAKLBakal  07:02+1307:03+131m--194.353315mSECRRajnandgaon, Chhattisgarh
13RJNRaj Nandgaon (3)X  07:15+1007:20+85m--1104.859313mSECRRajnandgaon, Chhattisgarh
14PMSParmalkasa  07:28+807:29+81m--1112.770300mSECRRajnandgaon, Chhattisgarh
15MUPMurhipar  07:35+907:37+92m--1119.864319mSECRRajnandgaon, Chhattisgarh
16RSMRasmaraX  07:44+1007:45+101m--1127.219292mSECRRasmada, Chhattisgarh
17DURG•Durg Junction (6)•  08:10+708:15+95m--1135.339299mSECRPh: 91-788-2322059, Chhattisgarh
18BQRBhilai Nagar (2)X  08:22+908:24+92m--1139.853298mSECRBhilai, Chhattisgarh
19BPHBBhilai Power House (3)X  08:29+408:31+42m--1144.256312mSECRBhilai, Chhattisgarh
20BIABhilai (2)X  08:36+908:38+92m--1148.841309mSECRBhilai, Chhattisgarh
21KMIKumhari (2)X  08:54+1608:56+152m--1159.862287mSECRKumhari, Chhattisgarh
22SZBSarona Cabin (2)  09:02+1609:04+172m--1166.048282mSECRRaipur, Chhattisgarh
23SRWNSaraswatinagar (2)X  09:09-09:11-2m--1169.915291mSECRRaipur, Chhattisgarh
24RRaipur Junction (6)  09:20+1709:27+177m--1172.231297mSECRRaipur, Chhattisgarh
25WRCWRS Colony PH  09:32-09:33-1m--1174.830286mSECRRaipur, Chhattisgarh
26URKUrkuraX  09:39+1809:41+222m--1177.886275mSECRRaipur, Chhattisgarh
27MDHMandhar  09:47+2409:49+252m--1186.464281mSECRDonde Kalan, Chhattisgarh
28SLHSiliariX  09:58+2610:00+312m--1195.951280mSECRBanjari Rd, Chhattisgarh
29TLDTilda (3)  10:17+3910:19+392m--1210.449291mSECRBanjari Rd, Chhattisgarh
30HNHathbandhX  10:32+3710:34+392m--1221.184283mSECRRaipur, Chhattisgarh
31BYTBhatapara (4)XO  10:45+3210:47+332m--1236.480270mSECRBanjari Road, Chhattisgarh
32NPINipaniaX  10:58+5011:00+492m--1251.238259mSECRNational Highway 200, Chhattisgarh
33DGSDagoriO  11:13+4811:15+482m--1259.477254mSECRCollege Road, Chhattisgarh
34BYLBelhaX  11:21+5111:23+502m--1267.170269mSECRCollege Road, Chhattisgarh
35CHBTChakarbhatha  11:28-11:30-2m--1272.937285mSECRBilaspur, Chhattisgarh
36DPHDadhapara (3)X  11:35+5711:40+1:005m--1276.04272mSECRBilaspur, Chhattisgarh
37BSPBilaspur Junction (8)  13:15+913:45+1030m21282.643271mSECRBilaspur, Chhattisgarh
38GTWGatora  13:54+413:57+33m--1289.157268mSECRBilaspur, Chhattisgarh
39JRMGJairamnagar  14:05+414:07+92m--1296.867272mSECRNational Highway 200, Chhattisgarh
40KTSHKotmi Sonar Halt  14:13-14:15-2m--1303.564266mSECRKotmisunar, Chhattisgarh
41AKTAkaltara (4)  14:21+1214:23+122m--1309.966284mSECRDist. Janjgir Champa, Chhattisgarh
42KPNAKapan (1)X  14:30-14:32-2m11317.633263mSECRNational Highway 200, Chhattisgarh
43NIANaila  14:45+1114:50+125m--1324.843273mSECRJanjgir, Chhattisgarh
44CPHChampa Junction (3)X  15:05+1315:20+1015m--1335.767264mSECRNational Highway 200 (07819-245767), Chhattisgarh
45SGRDSaragaon RoadX  15:28-15:30-2m--1344.649254mSECRNational Highway 200, Chhattisgarh
46BUABaradwar  15:38+1315:40+142m--1351.271256mSECRJanjgir-Champa, Chhattisgarh
47JDDAJethaXO  15:46-15:48-2m--1358.317244mSECRNational Highway 200, Chhattisgarh
48SKTSakti (4)X  16:15+216:30+415m--1366.076237mSECRJanjgir-Champa, Chhattisgarh
49JDIJharradihX  16:38+816:40+82m--1376.217247mSECRRaigarh, Chhattisgarh
50KHSKharsiaX  16:58-117:03+25m--1381.473259mSECRNational Highway 200, Chhattisgarh
51ROBRobertson  17:10+417:12+42m--1389.968239mSECRRaigarh, Chhattisgarh
52BEFBhupdeopur  17:20+617:22+62m--1399.079243mSECRRaigarh, Chhattisgarh
53KDTRKirodimalnagar (5)  17:29+917:31+92m--1408.231240mSECRRaigarh, Chhattisgarh
54RIGRaigarh (3)  17:45+1717:55+1810m--1415.473220mSECRRaigarh, Chhattisgarh
55KRLKotarlia  18:03+1318:05+132m--1425.1102229mSECRRaigarh, Chhattisgarh
56JMGJamgaX  18:10+1718:12+562m--1433.645233mSECRJamga Station, Chhattisgarh
57DAODaghora  18:28+5118:30+512m--1445.656269mSECRRaigarh, Chhattisgarh
58HGRHimgir  18:38+5118:40+562m--1453.081275mSECRNational Highway 200, Chhattisgarh
59BPHBelpaharO  18:50+5018:52+502m--1466.530235mSECRBelpahar, Odisha
60BRJNBrajrajnagarO  19:10+4919:15+475m--1475.420212mSECRBrajrajnagar, Odisha
61IBIb  19:23+3819:25+422m--1478.011207mSECRJharsuguda, Odisha
62JSGJharsuguda Junction (5)  20:15+10---1487.0-236mSERJharsuguda, Odisha
Scroll to Top
Scroll to Bottom